地図

経路データ

SID SEASON NUMBER BASIN SUBBASIN NAME ISO_TIME NATURE LAT LON WMO_WIND WMO_PRES WMO_AGENCY TRACK_TYPE DIST2LAND LANDFALL IFLAG USA_AGENCY USA_ATCF_ID USA_LAT USA_LON USA_RECORD USA_STATUS USA_WIND USA_PRES USA_SSHS USA_R34_NE USA_R34_SE USA_R34_SW USA_R34_NW USA_R50_NE USA_R50_SE USA_R50_SW USA_R50_NW USA_R64_NE USA_R64_SE USA_R64_SW USA_R64_NW USA_POCI USA_ROCI USA_RMW USA_EYE TOKYO_LAT TOKYO_LON TOKYO_GRADE TOKYO_WIND TOKYO_PRES TOKYO_R50_DIR TOKYO_R50_LONG TOKYO_R50_SHORT TOKYO_R30_DIR TOKYO_R30_LONG TOKYO_R30_SHORT TOKYO_LAND CMA_LAT CMA_LON CMA_CAT CMA_WIND CMA_PRES HKO_LAT HKO_LON HKO_CAT HKO_WIND HKO_PRES NEWDELHI_LAT NEWDELHI_LON NEWDELHI_GRADE NEWDELHI_WIND NEWDELHI_PRES NEWDELHI_CI NEWDELHI_DP NEWDELHI_POCI REUNION_LAT REUNION_LON REUNION_TYPE REUNION_WIND REUNION_PRES REUNION_TNUM REUNION_CI REUNION_RMW REUNION_R34_NE REUNION_R34_SE REUNION_R34_SW REUNION_R34_NW REUNION_R50_NE REUNION_R50_SE REUNION_R50_SW REUNION_R50_NW REUNION_R64_NE REUNION_R64_SE REUNION_R64_SW REUNION_R64_NW BOM_LAT BOM_LON BOM_TYPE BOM_WIND BOM_PRES BOM_TNUM BOM_CI BOM_RMW BOM_R34_NE BOM_R34_SE BOM_R34_SW BOM_R34_NW BOM_R50_NE BOM_R50_SE BOM_R50_SW BOM_R50_NW BOM_R64_NE BOM_R64_SE BOM_R64_SW BOM_R64_NW BOM_ROCI BOM_POCI BOM_EYE BOM_POS_METHOD BOM_PRES_METHOD NADI_LAT NADI_LON NADI_CAT NADI_WIND NADI_PRES WELLINGTON_LAT WELLINGTON_LON WELLINGTON_WIND WELLINGTON_PRES DS824_LAT DS824_LON DS824_STAGE DS824_WIND DS824_PRES TD9636_LAT TD9636_LON TD9636_STAGE TD9636_WIND TD9636_PRES TD9635_LAT TD9635_LON TD9635_WIND TD9635_PRES TD9635_ROCI NEUMANN_LAT NEUMANN_LON NEUMANN_CLASS NEUMANN_WIND NEUMANN_PRES MLC_LAT MLC_LON MLC_CLASS MLC_WIND MLC_PRES USA_GUST BOM_GUST BOM_GUST_PER REUNION_GUST REUNION_GUST_PER USA_SEAHGT USA_SEARAD_NE USA_SEARAD_SE USA_SEARAD_SW USA_SEARAD_NW STORM_SPEED STORM_DIR
1914362S19143 1915 43 SP EA NOT_NAMED 1914-12-27 23:00:00 NR -19.0000 142.500 994 bom main 0 0 ______O_______ -1 -19.0000 142.500 994 4 4 322
1914362S19143 1915 43 SP EA NOT_NAMED 1914-12-28 00:00:00 TS -18.9462 142.449 main 0 0 ______P__O____ -1 -18.9193 142.424 -19.0000 142.500 TC 40 994 3 318
1914362S19143 1915 43 SP EA NOT_NAMED 1914-12-28 03:00:00 TS -18.8369 142.343 main 0 0 ______P__P____ -1 -18.6864 142.206 -19.0625 142.550 TC 3 317
1914362S19143 1915 43 SP EA NOT_NAMED 1914-12-28 06:00:00 TS -18.7605 142.267 main 0 0 ______P__P____ -1 -18.4870 142.018 -19.1251 142.600 TC 1 316
1914362S19143 1915 43 SP EA NOT_NAMED 1914-12-28 09:00:00 TS -18.7668 142.266 main 0 0 ______P__P____ -1 -18.3461 141.883 -19.1876 142.650 TC 0 0
1914362S19143 1915 43 SP EA NOT_NAMED 1914-12-28 12:00:00 TS -18.7695 142.261 main 0 0 ______P__P____ -1 -18.2888 141.822 -19.2501 142.700 TC 1 150
1914362S19143 1915 43 SP EA NOT_NAMED 1914-12-28 15:00:00 TS -18.8265 142.304 main 0 0 ______P__P____ -1 -18.3403 141.858 -19.3126 142.750 TC 2 143
1914362S19143 1915 43 SP EA NOT_NAMED 1914-12-28 18:00:00 TS -18.9504 142.406 main 0 0 ______P__P____ -1 -18.5257 142.013 -19.3751 142.800 TC 4 141
1914362S19143 1915 43 SP EA NOT_NAMED 1914-12-28 21:00:00 TS -19.1537 142.580 main 0 0 ______P__P____ -1 -18.8699 142.310 -19.4375 142.850 TC 6 141
1914362S19143 1915 43 SP EA NOT_NAMED 1914-12-28 23:00:00 TS -19.3396 142.742 bom main 0 0 ______O__P____ -1 -19.2000 142.600 -19.4792 142.883 TC 8 140
1914362S19143 1915 43 SP EA NOT_NAMED 1914-12-29 00:00:00 TS -19.4488 142.837 main 0 0 ______P__O____ -1 -19.3975 142.775 -19.5000 142.900 TC 17 140
1914362S19143 1915 43 SP EA NOT_NAMED 1914-12-29 03:00:00 TS -20.1865 143.487 main 0 0 ______P__P____ -1 -20.1081 143.410 -20.2648 143.564 TC 20 140
1914362S19143 1915 43 SP EA NOT_NAMED 1914-12-29 06:00:00 TS -20.9963 144.212 main 0 0 ______P__P____ -1 -20.9629 144.186 -21.0298 144.237 TC 22 140
1914362S19143 1915 43 SP EA NOT_NAMED 1914-12-29 09:00:00 TS -21.8569 144.994 main 0 0 ______P__P____ -1 -21.9194 145.068 -21.7943 144.919 TC 23 140
1914362S19143 1915 43 SP EA NOT_NAMED 1914-12-29 12:00:00 TS -22.7465 145.816 main 0 0 ______P__P____ -1 -22.9352 146.022 -22.5578 145.610 TC 24 139
1914362S19143 1915 43 SP EA NOT_NAMED 1914-12-29 15:00:00 TS -23.6439 146.660 main 0 0 ______P__P____ -1 -23.9681 147.009 -23.3197 146.310 TC 24 139
1914362S19143 1915 43 SP EA NOT_NAMED 1914-12-29 18:00:00 TS -24.5283 147.505 main 0 0 ______P__P____ -1 -24.9773 147.991 -24.0792 147.019 TC 23 139
1914362S19143 1915 43 SP EA NOT_NAMED 1914-12-29 21:00:00 TS -25.3796 148.331 main 0 0 ______P__P____ -1 -25.9232 148.925 -24.8359 147.737 TC 22 139
1914362S19143 1915 43 SP EA NOT_NAMED 1914-12-29 23:00:00 TS -25.9192 148.860 bom main 0 0 ______O__P____ -1 -26.5000 149.500 -25.3384 148.220 TC 21 139
1914362S19143 1915 43 SP EA NOT_NAMED 1914-12-30 00:00:00 TS -26.1619 149.092 main 0 0 ______P__P____ -1 -26.7347 149.722 -25.5891 148.463 TC 19 139
1914362S19143 1915 43 SP EA NOT_NAMED 1914-12-30 03:00:00 TS -26.8675 149.770 main 0 0 ______P__P____ -1 -27.3969 150.341 -26.3381 149.198 TC 18 139
1914362S19143 1915 43 SP EA NOT_NAMED 1914-12-30 06:00:00 TS -27.5429 150.424 main 0 0 ______P__P____ -1 -28.0034 150.907 -27.0824 149.942 TC 18 139
1914362S19143 1915 43 SP EA NOT_NAMED 1914-12-30 09:00:00 TS -28.1923 151.065 main 0 0 ______P__P____ -1 -28.5633 151.437 -27.8213 150.694 TC 18 139
1914362S19143 1915 43 SP EA NOT_NAMED 1914-12-30 12:00:00 TS -28.8577 151.738 main 0 0 ______P__P____ -1 -29.0853 151.951 -28.5543 151.454 TC 17 138
1914362S19143 1915 43 SP EA NOT_NAMED 1914-12-30 15:00:00 TS -29.4784 152.387 main 0 0 ______P__P____ -1 -29.5773 152.469 -29.2807 152.223 TC 16 137
1914362S19143 1915 43 SP EA NOT_NAMED 1914-12-30 18:00:00 TS -30.0377 153.009 main 0 0 ______P__O____ -1 -30.0471 153.011 -30.0000 153.000 TC 15 136
1914362S19143 1915 43 SP EA NOT_NAMED 1914-12-30 19:00:00 NR -30.2000 153.200 bom main 9 9 ______O_______ -1 -30.2000 153.200 TC 14 133
1914362S19143 1915 43 SP EA NOT_NAMED 1914-12-30 21:00:00 NR -30.5018 153.594 main 52 52 ______P_______ -1 -30.5018 153.594 TC 14 131
1914362S19143 1915 43 SP EA NOT_NAMED 1914-12-30 23:00:00 NR -30.8000 154.000 bom main 91 ______O_______ -1 -30.8000 154.000 TC 14 130

デジタル台風データ・検索

IBTrACS Databaseについて

本データベースは、米国NOAAが公開する1842年以降の世界の熱帯低気圧のベストトラックデータアーカイブInternational Best Track Archive for Climate Stewardship (IBTrACS)を、ウェブで閲覧しやすい形式に変換したものです。

最終更新日:2021-10-08